sensor_id;sensor_type;location;lat;lon;timestamp;P1;durP1;ratioP1;P2;durP2;ratioP2
72924;SDS011;61070;50.794;7.054;2023-04-08T00:01:51;41.78;;;18.10;;
72924;SDS011;61070;50.794;7.054;2023-04-08T00:04:16;40.63;;;18.27;;
72924;SDS011;61070;50.794;7.054;2023-04-08T00:06:41;42.33;;;18.55;;
72924;SDS011;61070;50.794;7.054;2023-04-08T00:09:06;40.22;;;19.02;;
72924;SDS011;61070;50.794;7.054;2023-04-08T00:11:32;42.17;;;18.27;;
72924;SDS011;61070;50.794;7.054;2023-04-08T00:13:57;58.25;;;18.75;;
72924;SDS011;61070;50.794;7.054;2023-04-08T00:16:24;34.80;;;17.02;;
72924;SDS011;61070;50.794;7.054;2023-04-08T00:18:49;39.80;;;17.52;;
72924;SDS011;61070;50.794;7.054;2023-04-08T00:21:15;48.20;;;19.77;;
72924;SDS011;61070;50.794;7.054;2023-04-08T00:23:42;48.65;;;19.92;;
72924;SDS011;61070;50.794;7.054;2023-04-08T00:26:07;44.65;;;18.95;;
72924;SDS011;61070;50.794;7.054;2023-04-08T00:28:33;36.35;;;18.88;;
72924;SDS011;61070;50.794;7.054;2023-04-08T00:30:58;39.88;;;18.00;;
72924;SDS011;61070;50.794;7.054;2023-04-08T00:33:23;50.53;;;20.73;;
72924;SDS011;61070;50.794;7.054;2023-04-08T00:35:49;41.65;;;18.15;;
72924;SDS011;61070;50.794;7.054;2023-04-08T00:38:15;34.85;;;16.73;;
72924;SDS011;61070;50.794;7.054;2023-04-08T00:40:40;42.47;;;17.05;;
72924;SDS011;61070;50.794;7.054;2023-04-08T00:43:06;33.00;;;15.95;;
72924;SDS011;61070;50.794;7.054;2023-04-08T00:45:32;35.10;;;15.50;;
72924;SDS011;61070;50.794;7.054;2023-04-08T00:47:57;37.13;;;15.93;;
72924;SDS011;61070;50.794;7.054;2023-04-08T00:50:23;39.17;;;16.17;;
72924;SDS011;61070;50.794;7.054;2023-04-08T00:52:48;34.70;;;15.88;;
72924;SDS011;61070;50.794;7.054;2023-04-08T00:55:13;45.08;;;16.73;;
72924;SDS011;61070;50.794;7.054;2023-04-08T00:57:39;42.80;;;17.38;;
72924;SDS011;61070;50.794;7.054;2023-04-08T01:00:05;39.58;;;15.90;;
72924;SDS011;61070;50.794;7.054;2023-04-08T01:05:19;36.67;;;16.50;;
72924;SDS011;61070;50.794;7.054;2023-04-08T01:07:47;33.85;;;14.27;;
72924;SDS011;61070;50.794;7.054;2023-04-08T01:10:26;34.80;;;15.73;;
72924;SDS011;61070;50.794;7.054;2023-04-08T01:12:55;35.65;;;15.45;;
72924;SDS011;61070;50.794;7.054;2023-04-08T01:15:22;39.65;;;15.65;;
72924;SDS011;61070;50.794;7.054;2023-04-08T01:17:51;36.92;;;17.40;;
72924;SDS011;61070;50.794;7.054;2023-04-08T01:20:19;51.88;;;18.95;;
72924;SDS011;61070;50.794;7.054;2023-04-08T01:25:31;46.03;;;20.88;;
72924;SDS011;61070;50.794;7.054;2023-04-08T01:28:05;56.95;;;20.63;;
72924;SDS011;61070;50.794;7.054;2023-04-08T01:30:33;48.78;;;20.70;;
72924;SDS011;61070;50.794;7.054;2023-04-08T01:33:00;46.80;;;19.02;;
72924;SDS011;61070;50.794;7.054;2023-04-08T01:35:26;51.95;;;19.08;;
72924;SDS011;61070;50.794;7.054;2023-04-08T01:37:52;41.72;;;19.35;;
72924;SDS011;61070;50.794;7.054;2023-04-08T01:40:19;51.47;;;20.02;;
72924;SDS011;61070;50.794;7.054;2023-04-08T01:42:46;57.95;;;20.08;;
72924;SDS011;61070;50.794;7.054;2023-04-08T01:45:12;43.13;;;19.92;;
72924;SDS011;61070;50.794;7.054;2023-04-08T01:47:39;52.20;;;20.58;;
72924;SDS011;61070;50.794;7.054;2023-04-08T01:50:06;55.75;;;20.23;;
72924;SDS011;61070;50.794;7.054;2023-04-08T01:52:33;44.10;;;19.58;;
72924;SDS011;61070;50.794;7.054;2023-04-08T01:55:01;52.45;;;19.67;;
72924;SDS011;61070;50.794;7.054;2023-04-08T01:57:27;47.63;;;19.25;;
72924;SDS011;61070;50.794;7.054;2023-04-08T02:02:25;54.60;;;19.65;;
72924;SDS011;61070;50.794;7.054;2023-04-08T02:04:52;46.15;;;20.15;;
72924;SDS011;61070;50.794;7.054;2023-04-08T02:07:18;44.47;;;19.63;;
72924;SDS011;61070;50.794;7.054;2023-04-08T02:09:44;41.28;;;18.30;;
72924;SDS011;61070;50.794;7.054;2023-04-08T02:12:09;37.03;;;18.95;;
72924;SDS011;61070;50.794;7.054;2023-04-08T02:14:35;39.17;;;18.90;;
72924;SDS011;61070;50.794;7.054;2023-04-08T02:17:03;46.47;;;19.23;;
72924;SDS011;61070;50.794;7.054;2023-04-08T02:19:45;45.90;;;21.25;;
72924;SDS011;61070;50.794;7.054;2023-04-08T02:22:18;53.55;;;19.92;;
72924;SDS011;61070;50.794;7.054;2023-04-08T02:24:53;43.97;;;19.80;;
72924;SDS011;61070;50.794;7.054;2023-04-08T02:27:20;47.80;;;20.90;;
72924;SDS011;61070;50.794;7.054;2023-04-08T02:29:48;52.10;;;19.30;;
72924;SDS011;61070;50.794;7.054;2023-04-08T02:32:15;47.97;;;19.92;;
72924;SDS011;61070;50.794;7.054;2023-04-08T02:34:41;54.05;;;21.00;;
72924;SDS011;61070;50.794;7.054;2023-04-08T02:37:08;43.58;;;20.05;;
72924;SDS011;61070;50.794;7.054;2023-04-08T02:39:34;45.42;;;20.92;;
72924;SDS011;61070;50.794;7.054;2023-04-08T02:41:59;54.75;;;22.52;;
72924;SDS011;61070;50.794;7.054;2023-04-08T02:44:25;46.03;;;20.85;;
72924;SDS011;61070;50.794;7.054;2023-04-08T02:46:50;55.55;;;21.05;;
72924;SDS011;61070;50.794;7.054;2023-04-08T02:49:15;41.80;;;22.20;;
72924;SDS011;61070;50.794;7.054;2023-04-08T02:51:40;52.60;;;23.30;;
72924;SDS011;61070;50.794;7.054;2023-04-08T02:54:06;44.65;;;22.25;;
72924;SDS011;61070;50.794;7.054;2023-04-08T02:56:31;47.40;;;23.40;;
72924;SDS011;61070;50.794;7.054;2023-04-08T02:58:57;52.65;;;23.80;;
72924;SDS011;61070;50.794;7.054;2023-04-08T03:01:22;53.53;;;22.10;;
72924;SDS011;61070;50.794;7.054;2023-04-08T03:03:47;48.00;;;23.15;;
72924;SDS011;61070;50.794;7.054;2023-04-08T03:06:13;53.05;;;23.85;;
72924;SDS011;61070;50.794;7.054;2023-04-08T03:08:38;53.90;;;23.08;;
72924;SDS011;61070;50.794;7.054;2023-04-08T03:11:03;50.65;;;22.48;;
72924;SDS011;61070;50.794;7.054;2023-04-08T03:13:29;52.13;;;23.50;;
72924;SDS011;61070;50.794;7.054;2023-04-08T03:15:55;51.38;;;26.00;;
72924;SDS011;61070;50.794;7.054;2023-04-08T03:18:21;44.53;;;22.20;;
72924;SDS011;61070;50.794;7.054;2023-04-08T03:20:46;53.08;;;25.42;;
72924;SDS011;61070;50.794;7.054;2023-04-08T03:23:12;50.05;;;23.40;;
72924;SDS011;61070;50.794;7.054;2023-04-08T03:25:37;59.50;;;24.25;;
72924;SDS011;61070;50.794;7.054;2023-04-08T03:28:02;54.55;;;24.80;;
72924;SDS011;61070;50.794;7.054;2023-04-08T03:30:27;55.50;;;24.10;;
72924;SDS011;61070;50.794;7.054;2023-04-08T03:32:53;49.58;;;25.20;;
72924;SDS011;61070;50.794;7.054;2023-04-08T03:35:18;57.42;;;25.52;;
72924;SDS011;61070;50.794;7.054;2023-04-08T03:37:43;51.47;;;24.35;;
72924;SDS011;61070;50.794;7.054;2023-04-08T03:40:09;58.25;;;26.27;;
72924;SDS011;61070;50.794;7.054;2023-04-08T03:42:35;56.17;;;25.52;;
72924;SDS011;61070;50.794;7.054;2023-04-08T03:45:00;53.40;;;26.27;;
72924;SDS011;61070;50.794;7.054;2023-04-08T03:47:26;45.33;;;23.60;;
72924;SDS011;61070;50.794;7.054;2023-04-08T03:49:52;46.22;;;23.08;;
72924;SDS011;61070;50.794;7.054;2023-04-08T03:52:18;45.97;;;26.25;;
72924;SDS011;61070;50.794;7.054;2023-04-08T03:54:44;53.10;;;24.40;;
72924;SDS011;61070;50.794;7.054;2023-04-08T03:57:09;58.95;;;25.38;;
72924;SDS011;61070;50.794;7.054;2023-04-08T03:59:35;53.17;;;26.00;;
72924;SDS011;61070;50.794;7.054;2023-04-08T04:02:01;51.50;;;25.83;;
72924;SDS011;61070;50.794;7.054;2023-04-08T04:04:26;56.00;;;25.52;;
72924;SDS011;61070;50.794;7.054;2023-04-08T04:06:52;59.83;;;26.33;;
72924;SDS011;61070;50.794;7.054;2023-04-08T04:09:17;53.40;;;27.40;;
72924;SDS011;61070;50.794;7.054;2023-04-08T04:11:42;56.75;;;27.15;;
72924;SDS011;61070;50.794;7.054;2023-04-08T04:14:08;59.00;;;27.65;;
72924;SDS011;61070;50.794;7.054;2023-04-08T04:16:33;68.72;;;27.77;;
72924;SDS011;61070;50.794;7.054;2023-04-08T04:18:58;57.10;;;26.85;;
72924;SDS011;61070;50.794;7.054;2023-04-08T04:21:24;58.40;;;28.10;;
72924;SDS011;61070;50.794;7.054;2023-04-08T04:23:49;57.17;;;26.98;;
72924;SDS011;61070;50.794;7.054;2023-04-08T04:26:14;59.03;;;26.67;;
72924;SDS011;61070;50.794;7.054;2023-04-08T04:28:40;53.53;;;26.85;;
72924;SDS011;61070;50.794;7.054;2023-04-08T04:31:05;57.42;;;27.13;;
72924;SDS011;61070;50.794;7.054;2023-04-08T04:33:30;58.30;;;28.27;;
72924;SDS011;61070;50.794;7.054;2023-04-08T04:35:56;59.53;;;27.30;;
72924;SDS011;61070;50.794;7.054;2023-04-08T04:38:21;69.97;;;29.58;;
72924;SDS011;61070;50.794;7.054;2023-04-08T04:40:46;69.55;;;28.38;;
72924;SDS011;61070;50.794;7.054;2023-04-08T04:43:12;56.88;;;28.35;;
72924;SDS011;61070;50.794;7.054;2023-04-08T04:45:37;65.32;;;29.98;;
72924;SDS011;61070;50.794;7.054;2023-04-08T04:48:02;66.53;;;29.35;;
72924;SDS011;61070;50.794;7.054;2023-04-08T04:50:28;62.90;;;29.20;;
72924;SDS011;61070;50.794;7.054;2023-04-08T04:52:53;64.43;;;29.90;;
72924;SDS011;61070;50.794;7.054;2023-04-08T04:55:19;70.55;;;31.20;;
72924;SDS011;61070;50.794;7.054;2023-04-08T04:57:46;66.18;;;29.85;;
72924;SDS011;61070;50.794;7.054;2023-04-08T05:00:12;76.25;;;31.85;;
72924;SDS011;61070;50.794;7.054;2023-04-08T05:02:37;66.50;;;30.50;;
72924;SDS011;61070;50.794;7.054;2023-04-08T05:05:02;61.42;;;28.42;;
72924;SDS011;61070;50.794;7.054;2023-04-08T05:07:28;65.85;;;30.55;;
72924;SDS011;61070;50.794;7.054;2023-04-08T05:09:53;65.25;;;31.13;;
72924;SDS011;61070;50.794;7.054;2023-04-08T05:12:18;79.30;;;30.98;;
72924;SDS011;61070;50.794;7.054;2023-04-08T05:14:46;67.35;;;32.28;;
72924;SDS011;61070;50.794;7.054;2023-04-08T05:17:11;70.10;;;32.35;;
72924;SDS011;61070;50.794;7.054;2023-04-08T05:19:37;76.97;;;34.45;;
72924;SDS011;61070;50.794;7.054;2023-04-08T05:22:02;72.63;;;31.80;;
72924;SDS011;61070;50.794;7.054;2023-04-08T05:24:27;66.70;;;31.08;;
72924;SDS011;61070;50.794;7.054;2023-04-08T05:26:53;65.40;;;30.33;;
72924;SDS011;61070;50.794;7.054;2023-04-08T05:29:18;68.80;;;32.20;;
72924;SDS011;61070;50.794;7.054;2023-04-08T05:31:45;77.55;;;34.42;;
72924;SDS011;61070;50.794;7.054;2023-04-08T05:34:11;80.18;;;31.05;;
72924;SDS011;61070;50.794;7.054;2023-04-08T05:36:36;71.28;;;32.22;;
72924;SDS011;61070;50.794;7.054;2023-04-08T05:39:02;66.90;;;30.58;;
72924;SDS011;61070;50.794;7.054;2023-04-08T05:41:27;71.05;;;31.83;;
72924;SDS011;61070;50.794;7.054;2023-04-08T05:43:52;75.63;;;33.13;;
72924;SDS011;61070;50.794;7.054;2023-04-08T05:46:18;74.32;;;31.77;;
72924;SDS011;61070;50.794;7.054;2023-04-08T05:48:43;72.32;;;31.10;;
72924;SDS011;61070;50.794;7.054;2023-04-08T05:51:15;68.45;;;31.75;;
72924;SDS011;61070;50.794;7.054;2023-04-08T05:53:41;72.53;;;31.75;;
72924;SDS011;61070;50.794;7.054;2023-04-08T05:56:07;71.53;;;30.80;;
72924;SDS011;61070;50.794;7.054;2023-04-08T05:58:32;63.80;;;28.85;;
72924;SDS011;61070;50.794;7.054;2023-04-08T06:00:57;76.45;;;30.80;;
72924;SDS011;61070;50.794;7.054;2023-04-08T06:03:23;69.68;;;32.17;;
72924;SDS011;61070;50.794;7.054;2023-04-08T06:05:48;69.47;;;30.30;;
72924;SDS011;61070;50.794;7.054;2023-04-08T06:08:13;67.05;;;30.80;;
72924;SDS011;61070;50.794;7.054;2023-04-08T06:10:38;67.38;;;31.48;;
72924;SDS011;61070;50.794;7.054;2023-04-08T06:13:04;71.53;;;30.90;;
72924;SDS011;61070;50.794;7.054;2023-04-08T06:15:29;63.65;;;29.80;;
72924;SDS011;61070;50.794;7.054;2023-04-08T06:17:54;64.38;;;29.08;;
72924;SDS011;61070;50.794;7.054;2023-04-08T06:20:20;53.85;;;25.55;;
72924;SDS011;61070;50.794;7.054;2023-04-08T06:22:45;60.03;;;28.00;;
72924;SDS011;61070;50.794;7.054;2023-04-08T06:25:10;62.88;;;29.23;;
72924;SDS011;61070;50.794;7.054;2023-04-08T06:27:36;62.45;;;28.95;;
72924;SDS011;61070;50.794;7.054;2023-04-08T06:30:01;66.07;;;30.33;;
72924;SDS011;61070;50.794;7.054;2023-04-08T06:32:26;74.18;;;31.52;;
72924;SDS011;61070;50.794;7.054;2023-04-08T06:34:51;63.47;;;28.80;;
72924;SDS011;61070;50.794;7.054;2023-04-08T06:37:17;63.35;;;29.88;;
72924;SDS011;61070;50.794;7.054;2023-04-08T06:39:42;59.17;;;29.00;;
72924;SDS011;61070;50.794;7.054;2023-04-08T06:42:08;62.97;;;29.55;;
72924;SDS011;61070;50.794;7.054;2023-04-08T06:44:33;58.85;;;27.23;;
72924;SDS011;61070;50.794;7.054;2023-04-08T06:46:58;64.82;;;28.90;;
72924;SDS011;61070;50.794;7.054;2023-04-08T06:49:24;62.60;;;28.35;;
72924;SDS011;61070;50.794;7.054;2023-04-08T06:51:51;61.00;;;26.85;;
72924;SDS011;61070;50.794;7.054;2023-04-08T06:54:16;61.20;;;27.85;;
72924;SDS011;61070;50.794;7.054;2023-04-08T06:56:41;60.28;;;27.95;;
72924;SDS011;61070;50.794;7.054;2023-04-08T06:59:06;56.05;;;28.95;;
72924;SDS011;61070;50.794;7.054;2023-04-08T07:01:32;59.03;;;26.83;;
72924;SDS011;61070;50.794;7.054;2023-04-08T07:03:57;55.63;;;28.10;;
72924;SDS011;61070;50.794;7.054;2023-04-08T07:06:22;60.78;;;28.15;;
72924;SDS011;61070;50.794;7.054;2023-04-08T07:08:48;59.50;;;27.63;;
72924;SDS011;61070;50.794;7.054;2023-04-08T07:11:13;60.75;;;28.65;;
72924;SDS011;61070;50.794;7.054;2023-04-08T07:13:38;57.13;;;27.20;;
72924;SDS011;61070;50.794;7.054;2023-04-08T07:16:04;58.80;;;27.30;;
72924;SDS011;61070;50.794;7.054;2023-04-08T07:18:30;53.40;;;26.08;;
72924;SDS011;61070;50.794;7.054;2023-04-08T07:20:55;56.33;;;27.63;;
72924;SDS011;61070;50.794;7.054;2023-04-08T07:23:21;56.83;;;26.60;;
72924;SDS011;61070;50.794;7.054;2023-04-08T07:25:47;55.50;;;26.42;;
72924;SDS011;61070;50.794;7.054;2023-04-08T07:28:12;53.25;;;27.05;;
72924;SDS011;61070;50.794;7.054;2023-04-08T07:30:38;51.28;;;25.70;;
72924;SDS011;61070;50.794;7.054;2023-04-08T07:33:03;58.03;;;28.38;;
72924;SDS011;61070;50.794;7.054;2023-04-08T07:35:28;59.25;;;28.85;;
72924;SDS011;61070;50.794;7.054;2023-04-08T07:37:55;57.50;;;28.50;;
72924;SDS011;61070;50.794;7.054;2023-04-08T07:40:21;55.17;;;28.52;;
72924;SDS011;61070;50.794;7.054;2023-04-08T07:42:47;55.33;;;28.92;;
72924;SDS011;61070;50.794;7.054;2023-04-08T07:45:13;66.90;;;31.23;;
72924;SDS011;61070;50.794;7.054;2023-04-08T07:47:38;60.03;;;29.33;;
72924;SDS011;61070;50.794;7.054;2023-04-08T07:50:04;63.47;;;31.92;;
72924;SDS011;61070;50.794;7.054;2023-04-08T07:52:29;62.67;;;30.95;;
72924;SDS011;61070;50.794;7.054;2023-04-08T07:54:55;61.45;;;29.77;;
72924;SDS011;61070;50.794;7.054;2023-04-08T07:57:20;59.70;;;28.80;;
72924;SDS011;61070;50.794;7.054;2023-04-08T07:59:46;60.33;;;28.52;;
72924;SDS011;61070;50.794;7.054;2023-04-08T08:02:11;56.35;;;27.40;;
72924;SDS011;61070;50.794;7.054;2023-04-08T08:04:38;54.28;;;27.10;;
72924;SDS011;61070;50.794;7.054;2023-04-08T08:07:03;65.68;;;30.55;;
72924;SDS011;61070;50.794;7.054;2023-04-08T08:09:28;58.47;;;28.92;;
72924;SDS011;61070;50.794;7.054;2023-04-08T08:11:54;61.20;;;29.40;;
72924;SDS011;61070;50.794;7.054;2023-04-08T08:14:19;62.90;;;30.00;;
72924;SDS011;61070;50.794;7.054;2023-04-08T08:16:45;62.05;;;28.88;;
72924;SDS011;61070;50.794;7.054;2023-04-08T08:19:11;61.75;;;28.85;;
72924;SDS011;61070;50.794;7.054;2023-04-08T08:21:38;63.67;;;29.75;;
72924;SDS011;61070;50.794;7.054;2023-04-08T08:24:03;53.22;;;28.05;;
72924;SDS011;61070;50.794;7.054;2023-04-08T08:26:29;63.45;;;29.38;;
72924;SDS011;61070;50.794;7.054;2023-04-08T08:28:54;53.20;;;27.88;;
72924;SDS011;61070;50.794;7.054;2023-04-08T08:31:19;60.35;;;28.38;;
72924;SDS011;61070;50.794;7.054;2023-04-08T08:33:45;65.00;;;32.08;;
72924;SDS011;61070;50.794;7.054;2023-04-08T08:36:11;57.60;;;29.77;;
72924;SDS011;61070;50.794;7.054;2023-04-08T08:38:37;61.13;;;30.55;;
72924;SDS011;61070;50.794;7.054;2023-04-08T08:41:03;66.28;;;32.58;;
72924;SDS011;61070;50.794;7.054;2023-04-08T08:43:28;61.45;;;30.23;;
72924;SDS011;61070;50.794;7.054;2023-04-08T08:45:57;56.03;;;28.90;;
72924;SDS011;61070;50.794;7.054;2023-04-08T08:48:23;62.35;;;29.52;;
72924;SDS011;61070;50.794;7.054;2023-04-08T08:50:48;55.80;;;28.50;;
72924;SDS011;61070;50.794;7.054;2023-04-08T08:53:13;59.58;;;29.33;;
72924;SDS011;61070;50.794;7.054;2023-04-08T08:55:39;52.28;;;27.73;;
72924;SDS011;61070;50.794;7.054;2023-04-08T08:58:04;56.72;;;28.50;;
72924;SDS011;61070;50.794;7.054;2023-04-08T09:00:35;58.65;;;29.25;;
72924;SDS011;61070;50.794;7.054;2023-04-08T09:03:15;58.70;;;30.10;;
72924;SDS011;61070;50.794;7.054;2023-04-08T09:13:37;61.13;;;30.88;;
72924;SDS011;61070;50.794;7.054;2023-04-08T09:16:03;60.88;;;30.48;;
72924;SDS011;61070;50.794;7.054;2023-04-08T09:18:30;68.88;;;32.13;;
72924;SDS011;61070;50.794;7.054;2023-04-08T09:20:56;61.13;;;30.08;;
72924;SDS011;61070;50.794;7.054;2023-04-08T09:23:23;59.22;;;29.48;;
72924;SDS011;61070;50.794;7.054;2023-04-08T09:25:48;61.33;;;31.08;;
72924;SDS011;61070;50.794;7.054;2023-04-08T09:28:19;66.15;;;30.40;;
72924;SDS011;61070;50.794;7.054;2023-04-08T09:30:45;54.05;;;28.95;;
72924;SDS011;61070;50.794;7.054;2023-04-08T09:33:11;60.83;;;30.92;;
72924;SDS011;61070;50.794;7.054;2023-04-08T09:35:37;57.92;;;30.15;;
72924;SDS011;61070;50.794;7.054;2023-04-08T09:38:02;56.60;;;29.80;;
72924;SDS011;61070;50.794;7.054;2023-04-08T09:40:28;60.55;;;30.63;;
72924;SDS011;61070;50.794;7.054;2023-04-08T09:42:58;62.85;;;30.60;;
72924;SDS011;61070;50.794;7.054;2023-04-08T09:45:29;57.17;;;31.48;;
72924;SDS011;61070;50.794;7.054;2023-04-08T09:48:08;57.67;;;33.45;;
72924;SDS011;61070;50.794;7.054;2023-04-08T09:50:39;58.92;;;32.60;;
72924;SDS011;61070;50.794;7.054;2023-04-08T09:53:25;59.63;;;32.03;;
72924;SDS011;61070;50.794;7.054;2023-04-08T09:55:58;62.97;;;31.33;;
72924;SDS011;61070;50.794;7.054;2023-04-08T09:58:43;60.85;;;30.77;;
72924;SDS011;61070;50.794;7.054;2023-04-08T10:01:16;62.55;;;31.35;;
72924;SDS011;61070;50.794;7.054;2023-04-08T10:03:53;57.53;;;29.38;;
72924;SDS011;61070;50.794;7.054;2023-04-08T10:06:19;58.63;;;30.77;;
72924;SDS011;61070;50.794;7.054;2023-04-08T10:08:46;57.17;;;29.02;;
72924;SDS011;61070;50.794;7.054;2023-04-08T10:11:13;55.70;;;28.05;;
72924;SDS011;61070;50.794;7.054;2023-04-08T10:13:40;56.22;;;30.35;;
72924;SDS011;61070;50.794;7.054;2023-04-08T10:18:41;50.63;;;26.73;;
72924;SDS011;61070;50.794;7.054;2023-04-08T10:23:56;56.55;;;27.40;;
72924;SDS011;61070;50.794;7.054;2023-04-08T10:26:32;58.25;;;27.55;;
72924;SDS011;61070;50.794;7.054;2023-04-08T10:31:49;50.47;;;27.50;;
72924;SDS011;61070;50.794;7.054;2023-04-08T10:34:18;55.70;;;29.55;;
72924;SDS011;61070;50.794;7.054;2023-04-08T10:36:45;50.65;;;26.88;;
72924;SDS011;61070;50.794;7.054;2023-04-08T10:39:11;51.15;;;26.80;;
72924;SDS011;61070;50.794;7.054;2023-04-08T10:41:41;52.67;;;27.15;;
72924;SDS011;61070;50.794;7.054;2023-04-08T10:44:14;55.50;;;27.42;;
72924;SDS011;61070;50.794;7.054;2023-04-08T10:46:47;52.53;;;29.52;;
72924;SDS011;61070;50.794;7.054;2023-04-08T10:49:13;52.35;;;27.92;;
72924;SDS011;61070;50.794;7.054;2023-04-08T10:51:40;57.70;;;28.40;;
72924;SDS011;61070;50.794;7.054;2023-04-08T10:54:11;54.15;;;28.30;;
72924;SDS011;61070;50.794;7.054;2023-04-08T10:56:45;56.88;;;28.48;;
72924;SDS011;61070;50.794;7.054;2023-04-08T10:59:13;60.17;;;28.98;;
72924;SDS011;61070;50.794;7.054;2023-04-08T11:01:43;57.30;;;27.63;;
72924;SDS011;61070;50.794;7.054;2023-04-08T11:04:11;60.80;;;28.65;;
72924;SDS011;61070;50.794;7.054;2023-04-08T11:06:37;62.50;;;28.83;;
72924;SDS011;61070;50.794;7.054;2023-04-08T11:09:03;61.97;;;29.25;;
72924;SDS011;61070;50.794;7.054;2023-04-08T11:11:29;64.88;;;30.05;;
72924;SDS011;61070;50.794;7.054;2023-04-08T11:13:55;67.68;;;31.33;;
72924;SDS011;61070;50.794;7.054;2023-04-08T11:16:21;70.05;;;31.17;;
72924;SDS011;61070;50.794;7.054;2023-04-08T11:18:46;72.22;;;32.58;;
72924;SDS011;61070;50.794;7.054;2023-04-08T11:21:12;79.35;;;35.28;;
72924;SDS011;61070;50.794;7.054;2023-04-08T11:23:37;81.72;;;35.50;;
72924;SDS011;61070;50.794;7.054;2023-04-08T11:26:02;78.20;;;34.10;;
72924;SDS011;61070;50.794;7.054;2023-04-08T11:28:28;85.95;;;35.30;;
72924;SDS011;61070;50.794;7.054;2023-04-08T11:30:54;80.15;;;35.00;;
72924;SDS011;61070;50.794;7.054;2023-04-08T11:33:19;79.32;;;34.10;;
72924;SDS011;61070;50.794;7.054;2023-04-08T11:35:49;74.03;;;34.40;;
72924;SDS011;61070;50.794;7.054;2023-04-08T11:38:15;78.75;;;34.47;;
72924;SDS011;61070;50.794;7.054;2023-04-08T11:40:41;70.45;;;34.47;;
72924;SDS011;61070;50.794;7.054;2023-04-08T11:43:17;75.40;;;32.30;;
72924;SDS011;61070;50.794;7.054;2023-04-08T11:45:42;77.05;;;32.80;;
72924;SDS011;61070;50.794;7.054;2023-04-08T11:48:10;74.35;;;31.27;;
72924;SDS011;61070;50.794;7.054;2023-04-08T11:50:37;63.28;;;30.50;;
72924;SDS011;61070;50.794;7.054;2023-04-08T11:53:03;66.13;;;30.50;;
72924;SDS011;61070;50.794;7.054;2023-04-08T11:55:32;66.60;;;31.05;;
72924;SDS011;61070;50.794;7.054;2023-04-08T11:58:01;69.60;;;33.33;;
72924;SDS011;61070;50.794;7.054;2023-04-08T12:00:28;67.20;;;31.65;;
72924;SDS011;61070;50.794;7.054;2023-04-08T12:02:53;67.05;;;32.05;;
72924;SDS011;61070;50.794;7.054;2023-04-08T12:05:19;66.47;;;32.78;;
72924;SDS011;61070;50.794;7.054;2023-04-08T12:07:45;63.97;;;31.00;;
72924;SDS011;61070;50.794;7.054;2023-04-08T12:10:11;69.55;;;29.58;;
72924;SDS011;61070;50.794;7.054;2023-04-08T12:12:37;65.80;;;32.08;;
72924;SDS011;61070;50.794;7.054;2023-04-08T12:15:02;66.53;;;30.58;;
72924;SDS011;61070;50.794;7.054;2023-04-08T12:17:29;61.17;;;28.48;;
72924;SDS011;61070;50.794;7.054;2023-04-08T12:19:54;66.18;;;28.60;;
72924;SDS011;61070;50.794;7.054;2023-04-08T12:22:20;64.60;;;31.08;;
72924;SDS011;61070;50.794;7.054;2023-04-08T12:24:45;66.70;;;32.08;;
72924;SDS011;61070;50.794;7.054;2023-04-08T12:27:11;62.97;;;29.27;;
72924;SDS011;61070;50.794;7.054;2023-04-08T12:29:36;54.45;;;27.35;;
72924;SDS011;61070;50.794;7.054;2023-04-08T12:32:02;57.78;;;27.13;;
72924;SDS011;61070;50.794;7.054;2023-04-08T12:34:28;54.95;;;26.52;;
72924;SDS011;61070;50.794;7.054;2023-04-08T12:36:53;63.00;;;28.20;;
72924;SDS011;61070;50.794;7.054;2023-04-08T12:39:20;58.70;;;27.95;;
72924;SDS011;61070;50.794;7.054;2023-04-08T12:41:46;51.58;;;24.30;;
72924;SDS011;61070;50.794;7.054;2023-04-08T12:44:11;56.40;;;27.00;;
72924;SDS011;61070;50.794;7.054;2023-04-08T12:46:36;54.22;;;25.38;;
72924;SDS011;61070;50.794;7.054;2023-04-08T12:49:02;54.97;;;25.55;;
72924;SDS011;61070;50.794;7.054;2023-04-08T12:51:27;46.47;;;23.85;;
72924;SDS011;61070;50.794;7.054;2023-04-08T12:53:53;54.45;;;23.63;;
72924;SDS011;61070;50.794;7.054;2023-04-08T12:56:18;49.63;;;23.63;;
72924;SDS011;61070;50.794;7.054;2023-04-08T12:58:43;48.35;;;23.23;;
72924;SDS011;61070;50.794;7.054;2023-04-08T13:01:09;50.47;;;24.60;;
72924;SDS011;61070;50.794;7.054;2023-04-08T13:03:34;53.55;;;24.88;;
72924;SDS011;61070;50.794;7.054;2023-04-08T13:06:00;50.67;;;24.85;;
72924;SDS011;61070;50.794;7.054;2023-04-08T13:08:25;56.70;;;26.00;;
72924;SDS011;61070;50.794;7.054;2023-04-08T13:10:51;50.85;;;25.55;;
72924;SDS011;61070;50.794;7.054;2023-04-08T13:13:16;57.03;;;27.83;;
72924;SDS011;61070;50.794;7.054;2023-04-08T13:15:42;53.85;;;25.15;;
72924;SDS011;61070;50.794;7.054;2023-04-08T13:18:07;52.65;;;25.73;;
72924;SDS011;61070;50.794;7.054;2023-04-08T13:20:33;49.92;;;25.40;;
72924;SDS011;61070;50.794;7.054;2023-04-08T13:22:59;53.30;;;24.70;;
72924;SDS011;61070;50.794;7.054;2023-04-08T13:25:25;52.38;;;25.40;;
72924;SDS011;61070;50.794;7.054;2023-04-08T13:27:50;49.60;;;24.80;;
72924;SDS011;61070;50.794;7.054;2023-04-08T13:30:16;53.65;;;26.02;;
72924;SDS011;61070;50.794;7.054;2023-04-08T13:32:41;67.80;;;27.90;;
72924;SDS011;61070;50.794;7.054;2023-04-08T13:35:07;59.47;;;27.60;;
72924;SDS011;61070;50.794;7.054;2023-04-08T13:37:32;60.30;;;26.58;;
72924;SDS011;61070;50.794;7.054;2023-04-08T13:39:57;53.70;;;25.85;;
72924;SDS011;61070;50.794;7.054;2023-04-08T13:42:23;52.53;;;25.75;;
72924;SDS011;61070;50.794;7.054;2023-04-08T13:44:48;51.55;;;25.20;;
72924;SDS011;61070;50.794;7.054;2023-04-08T13:47:13;52.03;;;24.77;;
72924;SDS011;61070;50.794;7.054;2023-04-08T13:49:39;49.97;;;24.63;;
72924;SDS011;61070;50.794;7.054;2023-04-08T13:52:04;56.75;;;25.50;;
72924;SDS011;61070;50.794;7.054;2023-04-08T13:54:30;56.28;;;24.60;;
72924;SDS011;61070;50.794;7.054;2023-04-08T13:56:55;46.22;;;22.67;;
72924;SDS011;61070;50.794;7.054;2023-04-08T13:59:21;53.50;;;25.50;;
72924;SDS011;61070;50.794;7.054;2023-04-08T14:01:46;50.90;;;25.90;;
72924;SDS011;61070;50.794;7.054;2023-04-08T14:04:12;48.55;;;24.30;;
72924;SDS011;61070;50.794;7.054;2023-04-08T14:06:37;51.17;;;24.65;;
72924;SDS011;61070;50.794;7.054;2023-04-08T14:09:02;57.22;;;26.60;;
72924;SDS011;61070;50.794;7.054;2023-04-08T14:11:28;56.22;;;25.38;;
72924;SDS011;61070;50.794;7.054;2023-04-08T14:13:53;52.35;;;25.30;;
72924;SDS011;61070;50.794;7.054;2023-04-08T14:16:18;53.55;;;25.10;;
72924;SDS011;61070;50.794;7.054;2023-04-08T14:18:44;56.65;;;27.95;;
72924;SDS011;61070;50.794;7.054;2023-04-08T14:21:09;51.30;;;26.00;;
72924;SDS011;61070;50.794;7.054;2023-04-08T14:23:36;52.25;;;25.00;;
72924;SDS011;61070;50.794;7.054;2023-04-08T14:26:02;50.13;;;24.40;;
72924;SDS011;61070;50.794;7.054;2023-04-08T14:28:27;49.97;;;23.80;;
72924;SDS011;61070;50.794;7.054;2023-04-08T14:30:52;48.10;;;23.60;;
72924;SDS011;61070;50.794;7.054;2023-04-08T14:33:17;42.90;;;21.80;;
72924;SDS011;61070;50.794;7.054;2023-04-08T14:35:43;43.80;;;23.77;;
72924;SDS011;61070;50.794;7.054;2023-04-08T14:38:08;51.42;;;25.65;;
72924;SDS011;61070;50.794;7.054;2023-04-08T14:40:34;48.97;;;24.52;;